This is the latest recevied weather packets stored in our database for station/object HS5SQI-2. If no packets are shown the sender has not sent any weather packets the latest 10 day(s).
| Time | Temp. | Humidity | Pressure | Rain* | Wind** | Luminosity | Snow |
|---|---|---|---|---|---|---|---|
| 1777873650 | 37.22° C | 59% | 1006 hPa | - | - | 0 W/m² | - |
| 1777873028 | 37.22° C | 57% | 1006 hPa | - | - | 0 W/m² | - |
| 1777872406 | 37.78° C | 56% | 1007 hPa | - | - | 0 W/m² | - |
| 1777871784 | 38.33° C | 52% | 1007 hPa | - | - | 0 W/m² | - |
| 1777871162 | 39.44° C | 49% | 1007 hPa | - | - | 0 W/m² | - |
| 1777870540 | 40° C | 48% | 1007 hPa | - | - | 0 W/m² | - |
| 1777869918 | 40° C | 50% | 1007 hPa | - | - | 0 W/m² | - |
| 1777869296 | 39.44° C | 49% | 1007 hPa | - | - | 0 W/m² | - |
| 1777868674 | 39.44° C | 49% | 1007 hPa | - | - | 0 W/m² | - |
| 1777868052 | 40° C | 50% | 1008 hPa | - | - | 0 W/m² | - |
| 1777867430 | 39.44° C | 53% | 1008 hPa | - | - | 0 W/m² | - |
| 1777866807 | 38.89° C | 53% | 1008 hPa | - | - | 0 W/m² | - |
| 1777866186 | 38.89° C | 54% | 1008 hPa | - | - | 0 W/m² | - |
| 1777865563 | 38.33° C | 55% | 1008 hPa | - | - | 0 W/m² | - |
| 1777864942 | 38.33° C | 55% | 1008 hPa | - | - | 0 W/m² | - |
| 1777864320 | 37.78° C | 58% | 1008 hPa | - | - | 0 W/m² | - |
| 1777863697 | 36.67° C | 60% | 1008 hPa | - | - | 0 W/m² | - |
| 1777863075 | 36.11° C | 61% | 1008 hPa | - | - | 0 W/m² | - |
| 1777862453 | 36.11° C | 61% | 1008 hPa | - | - | 0 W/m² | - |
| 1777861831 | 36.11° C | 63% | 1008 hPa | - | - | 0 W/m² | - |
| 1777861209 | 36.11° C | 63% | 1008 hPa | - | - | 0 W/m² | - |
| 1777860587 | 36.11° C | 63% | 1008 hPa | - | - | 0 W/m² | - |
| 1777859965 | 35° C | 67% | 1008 hPa | - | - | 0 W/m² | - |
| 1777859343 | 35.56° C | 67% | 1009 hPa | - | - | 0 W/m² | - |
| 1777858721 | 35° C | 69% | 1009 hPa | - | - | 0 W/m² | - |
* Rain since midnight (hover to see other rain measurements)
** Current wind speed in m/s (hover to see current wind gust speed)